Pagrindinis puslapis
METAR-TAF:

METAR-TAF

Oro uostai :

Area_Regional_Airport

South Haven, Mičiganas, Jungtinės Amerikos Valstijos

platuma: 42-21-03N, ilguma: 086-15-22W, Aukštis: 203 m

Dabartinis oras

Ataskaita buvo paskelbta 20 minutes, ne 01:58 UTC
Ramus vėjas
Temperatūra 3°C
Drėgmė 100%
Slėgis 1019 hPa
Matomumas: 16.1 km
Giedras dangus

METAR: KLWA 150158Z AUTO 00000KT 10SM CLR 03/03 A3008 RMK AO2 T00310026

Laikas: 22:18 (02:18 UTC)


TAF: trūkstamas

Orai ataskaitas ir orų prognozės (METAR, TAF).

turimą stotys yra geltonos ir raudonos taškus žemėlapyje.

Perkelti pele per norėdami pamatyti stoties vardą.

Tada spustelėkite, norėdami matyti oro stebėjimo ir prognozės.

Norėdami pakeisti žemėlapį: spustelėkite ant žalios mygtukų su juodo kryžiaus žemyn,; žalią mygtuką su brūkšneliu, jei norite nutolinti; arba žalių rodyklių gretimoms žemėlapius.


METAR-TAF: